Time;durP1;ratioP1;P1;durP2;ratioP2;P2;SDS_P1;SDS_P2;PMS_P1;PMS_P2;Temp;Humidity;BMP_temperature;BMP_pressure;BME280_temperature;BME280_humidity;BME280_pressure;Samples;Min_cycle;Max_cycle;Signal;HPM_P1;HPM_P2
2021/08/03 00:01:04;;;;;;;6.85;3.93;;;;;;;12.83;72.19;99611.58;254696;1103;115362;-66
2021/08/03 00:06:15;;;;;;;5.03;4.50;;;;;;;12.73;72.40;99610.41;255854;1104;115712;-66
2021/08/03 00:11:21;;;;;;;3.70;3.23;;;;;;;12.67;72.36;99621.30;254817;1103;118380;-66
2021/08/03 00:16:24;;;;;;;4.53;3.65;;;;;;;12.66;72.57;99620.48;255730;1102;114790;-65
2021/08/03 00:21:29;;;;;;;4.70;3.78;;;;;;;12.65;72.59;99626.89;256670;1102;115905;-65
2021/08/03 00:26:32;;;;;;;5.17;3.63;;;;;;;12.58;72.29;99628.14;257331;1103;115249;-66
2021/08/03 00:31:37;;;;;;;5.30;3.55;;;;;;;12.54;72.60;99637.71;257462;1103;115290;-66
2021/08/03 00:36:42;;;;;;;8.38;4.00;;;;;;;12.44;72.21;99639.23;257321;1104;115121;-65
2021/08/03 00:41:58;;;;;;;4.45;3.63;;;;;;;12.36;72.34;99638.84;256056;1096;116061;-65
2021/08/03 00:47:01;;;;;;;3.85;3.55;;;;;;;12.26;72.62;99644.05;254899;1103;115970;-66
2021/08/03 00:52:08;;;;;;;4.13;3.80;;;;;;;12.17;73.11;99643.70;254377;1104;120370;-65
2021/08/03 00:57:14;;;;;;;4.18;3.88;;;;;;;12.03;72.38;99642.42;254474;1104;116364;-66
2021/08/03 01:02:17;;;;;;;4.70;4.28;;;;;;;11.99;73.43;99647.44;255873;1104;115973;-65
2021/08/03 01:07:45;;;;;;;3.60;3.20;;;;;;;12.03;73.59;99650.44;255389;1099;117399;-65
2021/08/03 01:12:59;;;;;;;4.15;3.75;;;;;;;12.02;73.64;99644.28;254704;1104;116613;-65
2021/08/03 01:19:04;;;;;;;3.13;2.78;;;;;;;11.96;73.70;99641.78;254428;1104;116223;-68
2021/08/03 01:24:16;;;;;;;5.55;4.05;;;;;;;11.84;73.70;99654.44;253736;1107;116592;-66
2021/08/03 01:29:22;;;;;;;4.18;3.83;;;;;;;11.77;73.88;99650.07;255244;1104;116465;-66
2021/08/03 01:34:30;;;;;;;5.63;3.55;;;;;;;11.81;73.98;99650.39;254362;1103;117791;-67
2021/08/03 01:39:43;;;;;;;3.88;3.48;;;;;;;11.77;74.08;99652.75;255007;1103;117183;-66
2021/08/03 01:44:48;;;;;;;10.88;3.53;;;;;;;11.68;74.00;99653.36;254113;1104;115805;-66
2021/08/03 01:49:54;;;;;;;5.18;4.68;;;;;;;11.62;74.27;99655.14;255717;1103;117396;-67
2021/08/03 01:54:59;;;;;;;4.03;3.73;;;;;;;11.54;74.05;99652.08;254759;1104;115797;-65
2021/08/03 02:00:04;;;;;;;5.20;4.63;;;;;;;11.44;74.03;99650.05;254317;1104;115316;-68
2021/08/03 02:05:08;;;;;;;11.75;4.98;;;;;;;11.40;74.24;99654.25;255570;1104;116163;-65
2021/08/03 02:10:12;;;;;;;4.90;4.50;;;;;;;11.33;74.52;99656.27;254460;1102;115439;-65
2021/08/03 02:15:14;;;;;;;5.33;3.67;;;;;;;11.35;74.72;99649.63;255178;1103;115601;-65
2021/08/03 02:20:16;;;;;;;4.65;3.50;;;;;;;11.38;74.75;99661.69;254318;1104;116008;-67
2021/08/03 02:25:19;;;;;;;5.75;4.53;;;;;;;11.36;74.67;99658.45;254346;1104;117134;-67
2021/08/03 02:30:22;;;;;;;5.75;4.20;;;;;;;11.37;74.91;99660.88;255466;1104;117963;-65
2021/08/03 02:35:56;;;;;;;6.38;5.63;;;;;;;11.32;75.11;99665.31;254285;1096;115896;-67
2021/08/03 02:40:59;;;;;;;4.63;3.13;;;;;;;11.34;75.41;99658.69;257028;1103;116232;-65
2021/08/03 02:46:03;;;;;;;4.23;3.83;;;;;;;11.39;75.08;99663.31;255956;1104;115695;-64
2021/08/03 02:51:07;;;;;;;5.73;4.48;;;;;;;11.36;75.00;99664.59;255361;1104;116775;-65
2021/08/03 02:56:16;;;;;;;8.83;5.63;;;;;;;11.32;75.41;99657.31;255356;1103;115469;-67
2021/08/03 03:01:23;;;;;;;8.38;5.00;;;;;;;11.36;75.52;99663.78;256132;1104;114855;-65
2021/08/03 03:06:27;;;;;;;9.40;4.73;;;;;;;11.40;75.44;99680.94;254177;1104;115844;-67
2021/08/03 03:11:33;;;;;;;5.20;3.95;;;;;;;11.36;75.40;99675.27;254990;1104;115132;-66
2021/08/03 03:16:41;;;;;;;3.98;3.65;;;;;;;11.39;75.58;99679.32;254705;1104;116422;-66
2021/08/03 03:21:48;;;;;;;6.75;5.38;;;;;;;11.47;75.45;99681.59;254509;1104;115195;-67
2021/08/03 03:26:53;;;;;;;5.33;4.90;;;;;;;11.43;75.72;99681.27;254330;1104;115759;-67
2021/08/03 03:31:59;;;;;;;3.75;3.45;;;;;;;11.43;75.69;99688.47;255157;1099;114998;-66
2021/08/03 03:37:03;;;;;;;6.13;5.45;;;;;;;11.46;76.07;99685.32;254725;1096;115385;-67
2021/08/03 03:42:07;;;;;;;5.58;4.98;;;;;;;11.57;76.29;99696.98;254757;1103;116452;-67
2021/08/03 03:47:28;;;;;;;4.75;4.40;;;;;;;11.76;76.77;99693.02;254199;1104;115884;-67
2021/08/03 03:52:39;;;;;;;8.75;5.55;;;;;;;12.07;76.53;99694.31;254985;1104;115562;-67
2021/08/03 03:57:45;;;;;;;9.20;5.05;;;;;;;12.46;76.15;99695.93;254494;1104;115246;-67
2021/08/03 04:02:51;;;;;;;6.53;5.50;;;;;;;12.64;76.25;99697.48;255170;1104;115488;-67
2021/08/03 04:07:55;;;;;;;6.43;5.10;;;;;;;12.73;76.77;99713.91;254212;1104;114991;-67
2021/08/03 04:12:59;;;;;;;9.40;6.43;;;;;;;12.88;76.60;99715.94;254477;1102;114702;-67
2021/08/03 04:18:04;;;;;;;10.95;6.68;;;;;;;12.89;76.71;99712.20;254297;1103;114890;-67
2021/08/03 04:23:08;;;;;;;8.20;6.28;;;;;;;13.01;76.96;99719.05;254410;1103;115879;-67
2021/08/03 04:28:12;;;;;;;6.93;6.23;;;;;;;13.88;76.45;99714.52;255865;1096;115002;-65
2021/08/03 04:33:15;;;;;;;9.80;6.53;;;;;;;14.10;75.84;99720.56;256250;1104;115138;-66
2021/08/03 04:38:17;;;;;;;8.40;6.03;;;;;;;14.33;75.78;99725.56;257380;1104;114724;-64
2021/08/03 04:43:20;;;;;;;8.65;7.20;;;;;;;14.57;76.15;99719.81;257306;1103;114850;-65
2021/08/03 04:48:23;;;;;;;6.13;5.38;;;;;;;14.69;75.89;99723.06;257080;1104;115140;-65
2021/08/03 04:53:26;;;;;;;7.00;6.15;;;;;;;14.89;75.57;99715.12;257094;1104;115335;-64
2021/08/03 04:58:30;;;;;;;5.80;5.30;;;;;;;14.95;75.66;99722.13;255633;1102;116825;-66
2021/08/03 05:03:34;;;;;;;5.53;4.83;;;;;;;15.02;75.90;99717.28;257183;1099;116791;-64
2021/08/03 05:08:37;;;;;;;5.63;5.13;;;;;;;15.20;75.81;99715.20;257199;1103;139283;-66
2021/08/03 05:13:40;;;;;;;5.43;4.95;;;;;;;15.37;76.11;99729.19;257366;1104;115468;-66
2021/08/03 05:18:44;;;;;;;4.58;4.18;;;;;;;15.58;75.89;99730.07;254384;1104;116069;-64
2021/08/03 05:23:48;;;;;;;5.58;5.03;;;;;;;15.52;75.96;99739.97;255631;1103;116209;-62
2021/08/03 05:28:51;;;;;;;10.38;6.00;;;;;;;15.53;75.61;99735.40;255366;1104;116226;-64
2021/08/03 05:33:54;;;;;;;5.60;5.10;;;;;;;15.51;75.58;99741.04;254101;1102;116142;-66
2021/08/03 05:38:57;;;;;;;4.80;4.40;;;;;;;15.52;75.38;99734.59;255303;1103;114977;-64
2021/08/03 05:43:59;;;;;;;10.78;5.10;;;;;;;15.65;75.68;99734.08;254974;1103;115704;-64
2021/08/03 05:49:03;;;;;;;4.40;4.10;;;;;;;15.74;75.74;99728.98;255402;1104;116261;-64
2021/08/03 05:54:06;;;;;;;5.13;4.58;;;;;;;16.09;75.69;99733.55;254382;1104;115810;-66
2021/08/03 05:59:09;;;;;;;5.08;3.65;;;;;;;16.48;75.44;99741.81;255268;1104;115584;-64
2021/08/03 06:04:12;;;;;;;4.53;4.23;;;;;;;16.48;74.87;99739.94;257238;1104;116613;-66
2021/08/03 06:09:18;;;;;;;6.58;4.33;;;;;;;16.53;74.39;99747.16;254598;1098;115852;-65
2021/08/03 06:14:44;;;;;;;8.88;4.35;;;;;;;16.53;74.30;99751.73;255394;1103;114973;-65
2021/08/03 06:19:49;;;;;;;5.30;4.75;;;;;;;16.56;74.13;99754.69;256200;1103;115857;-66
2021/08/03 06:24:54;;;;;;;7.23;4.53;;;;;;;16.69;74.15;99753.35;255789;1104;115368;-67
2021/08/03 06:30:02;;;;;;;4.93;4.53;;;;;;;16.81;74.11;99753.86;257224;1102;115111;-66
2021/08/03 06:35:07;;;;;;;4.03;3.73;;;;;;;16.87;73.74;99747.34;257148;1103;115564;-67
2021/08/03 06:40:10;;;;;;;5.40;4.60;;;;;;;17.04;74.02;99747.83;255404;1102;115751;-67
2021/08/03 06:45:20;;;;;;;6.33;4.57;;;;;;;17.27;73.92;99756.32;257236;1102;115872;-65
2021/08/03 06:50:28;;;;;;;10.03;6.47;;;;;;;17.81;72.93;99756.25;257092;1103;119132;-67
2021/08/03 06:55:34;;;;;;;5.63;5.17;;;;;;;18.16;72.08;99752.45;257355;1103;116618;-67
2021/08/03 07:00:42;;;;;;;14.37;5.03;;;;;;;18.93;72.17;99755.17;257256;1104;115893;-67
2021/08/03 07:05:53;;;;;;;6.03;4.23;;;;;;;19.70;70.74;99759.23;256702;1104;118839;-67
2021/08/03 07:10:56;;;;;;;6.55;3.58;;;;;;;20.39;69.73;99757.56;253844;1104;116559;-67
2021/08/03 07:16:03;;;;;;;20.78;5.73;;;;;;;20.95;69.52;99764.59;253773;1104;115777;-67
2021/08/03 07:21:06;;;;;;;6.85;4.10;;;;;;;22.13;68.93;99760.85;253836;1096;116190;-65
2021/08/03 07:26:11;;;;;;;6.48;3.63;;;;;;;22.88;67.16;99765.38;254954;1104;116550;-66
2021/08/03 07:31:14;;;;;;;7.03;3.58;;;;;;;23.74;66.19;99768.23;254631;1097;116052;-67
2021/08/03 07:36:17;;;;;;;11.35;3.28;;;;;;;24.27;64.95;99760.79;253565;1104;115963;-67
2021/08/03 07:41:22;;;;;;;4.70;3.15;;;;;;;24.89;65.17;99757.48;253683;1104;115704;-66
2021/08/03 07:46:25;;;;;;;5.28;3.63;;;;;;;25.41;63.26;99772.41;253903;1100;115699;-66
2021/08/03 07:51:28;;;;;;;3.70;3.40;;;;;;;25.77;62.12;99771.03;253672;1104;115901;-67
2021/08/03 07:56:30;;;;;;;5.15;3.45;;;;;;;26.01;60.90;99764.86;253444;1104;115704;-68
2021/08/03 08:01:33;;;;;;;3.30;3.10;;;;;;;26.19;60.07;99769.02;253776;1104;115807;-68
2021/08/03 08:06:37;;;;;;;3.63;3.00;;;;;;;25.97;58.33;99759.30;255741;1103;115049;-69
2021/08/03 08:11:52;;;;;;;5.37;2.90;;;;;;;25.78;57.58;99761.71;254730;1104;114751;-71
2021/08/03 08:16:54;;;;;;;4.23;2.90;;;;;;;25.96;57.65;99767.82;253794;1103;115791;-68
2021/08/03 08:21:57;;;;;;;3.28;2.68;;;;;;;26.07;56.54;99768.98;253815;1103;116620;-67
2021/08/03 08:27:00;;;;;;;8.03;2.85;;;;;;;26.12;55.27;99763.30;253758;1104;115718;-66
2021/08/03 08:32:07;;;;;;;2.78;2.55;;;;;;;26.09;55.72;99756.58;256144;1104;115718;-65
2021/08/03 08:37:15;;;;;;;4.75;2.05;;;;;;;26.29;53.75;99759.61;256474;1103;116539;-65
2021/08/03 08:42:18;;;;;;;4.30;2.48;;;;;;;26.22;53.42;99762.89;257314;1104;115182;-66
2021/08/03 08:47:23;;;;;;;3.67;1.97;;;;;;;26.20;53.07;99769.82;257096;1104;115791;-66
2021/08/03 08:52:27;;;;;;;2.53;1.40;;;;;;;26.28;51.53;99777.94;257107;1104;116764;-66
2021/08/03 08:57:31;;;;;;;2.63;2.27;;;;;;;26.10;51.33;99774.57;257118;1104;118455;-66
2021/08/03 09:02:41;;;;;;;3.23;2.33;;;;;;;26.23;50.55;99772.68;257354;1104;117420;-66
2021/08/03 09:07:54;;;;;;;3.35;1.83;;;;;;;26.27;49.97;99775.54;257456;1103;117061;-66
2021/08/03 09:13:01;;;;;;;1.53;1.43;;;;;;;26.45;50.35;99766.02;257396;1103;115933;-67
2021/08/03 09:18:14;;;;;;;3.70;1.53;;;;;;;26.67;49.32;99776.52;255790;1104;115604;-66
2021/08/03 09:23:17;;;;;;;1.43;1.25;;;;;;;27.06;49.02;99772.33;256025;1104;115742;-66
2021/08/03 09:28:23;;;;;;;2.20;1.67;;;;;;;26.82;47.50;99775.06;255783;1104;115645;-66
2021/08/03 09:33:27;;;;;;;1.73;1.63;;;;;;;26.54;46.65;99768.66;253624;1104;116695;-68
2021/08/03 09:38:35;;;;;;;1.93;1.43;;;;;;;26.34;46.97;99773.86;253852;1104;116672;-69
2021/08/03 09:43:38;;;;;;;2.90;1.75;;;;;;;26.41;46.78;99767.84;253810;1104;115986;-66
2021/08/03 09:48:47;;;;;;;2.18;1.68;;;;;;;26.61;46.71;99775.14;254189;1103;116375;-67
2021/08/03 09:53:53;;;;;;;1.80;1.10;;;;;;;26.15;45.45;99774.36;254679;1103;115136;-66
2021/08/03 09:58:59;;;;;;;2.60;1.50;;;;;;;25.82;45.41;99774.36;255268;1103;115932;-66
2021/08/03 10:04:08;;;;;;;2.03;1.83;;;;;;;25.31;46.17;99774.76;254678;1104;116202;-66
2021/08/03 10:09:12;;;;;;;23.90;2.93;;;;;;;24.80;46.71;99766.50;255831;1096;115978;-66
2021/08/03 10:14:16;;;;;;;2.00;0.90;;;;;;;24.97;46.34;99762.93;255861;1103;116989;-65
2021/08/03 10:19:25;;;;;;;1.63;1.30;;;;;;;24.59;45.74;99771.09;254229;1096;115713;-65
2021/08/03 10:24:35;;;;;;;1.53;1.40;;;;;;;24.30;46.88;99769.12;255040;1103;116331;-66
2021/08/03 10:29:48;;;;;;;1.45;1.40;;;;;;;24.64;47.08;99770.92;255149;1103;115607;-65
2021/08/03 10:34:52;;;;;;;1.70;1.60;;;;;;;24.66;47.18;99760.49;255404;1098;116629;-66
2021/08/03 10:39:57;;;;;;;1.68;1.58;;;;;;;25.38;46.49;99762.16;255046;1104;118220;-67
2021/08/03 10:45:15;;;;;;;1.80;1.70;;;;;;;25.43;45.29;99755.70;256008;1096;116760;-67
2021/08/03 10:50:32;;;;;;;1.55;1.35;;;;;;;25.14;44.98;99749.17;254936;1104;115598;-68
2021/08/03 10:55:38;;;;;;;1.93;1.50;;;;;;;25.36;45.46;99745.34;253941;1103;116707;-65
2021/08/03 11:00:42;;;;;;;1.00;1.00;;;;;;;25.95;44.96;99749.84;257222;1101;115283;-66
2021/08/03 11:05:46;;;;;;;2.28;1.70;;;;;;;25.90;43.67;99744.58;257134;1104;117483;-65
2021/08/03 11:11:06;;;;;;;3.43;1.80;;;;;;;25.71;43.72;99739.60;257125;1103;115981;-66
2021/08/03 11:16:30;;;;;;;2.90;1.30;;;;;;;25.66;44.03;99735.17;257157;1103;116389;-66
2021/08/03 11:21:43;;;;;;;2.58;1.63;;;;;;;26.07;44.32;99733.47;256979;1102;200166;-68
2021/08/03 11:26:54;;;;;;;2.53;1.80;;;;;;;26.46;43.62;99741.09;257090;1103;115138;-64
2021/08/03 11:32:00;;;;;;;1.83;1.73;;;;;;;26.55;43.28;99732.79;257241;1104;115299;-66
2021/08/03 11:37:21;;;;;;;2.45;1.80;;;;;;;26.68;43.83;99728.09;255940;1102;115340;-66
2021/08/03 11:42:38;;;;;;;2.03;1.85;;;;;;;26.57;43.37;99732.45;256587;1096;115295;-70
2021/08/03 11:47:47;;;;;;;2.65;2.13;;;;;;;26.44;43.62;99721.50;254129;1102;115740;-69
2021/08/03 11:52:50;;;;;;;3.68;2.08;;;;;;;26.28;42.64;99728.75;253772;1103;115138;-68
2021/08/03 11:57:53;;;;;;;1.60;1.50;;;;;;;26.16;42.78;99723.25;254199;1103;115210;-69
2021/08/03 12:02:59;;;;;;;2.08;1.98;;;;;;;26.28;43.24;99720.55;254275;1102;115345;-69
2021/08/03 12:08:12;;;;;;;6.28;1.83;;;;;;;26.29;42.98;99718.62;253792;1103;115252;-67
2021/08/03 12:13:33;;;;;;;5.63;1.93;;;;;;;26.63;42.49;99711.92;253805;1104;114849;-68
2021/08/03 12:18:40;;;;;;;1.15;1.15;;;;;;;26.56;41.66;99708.98;254111;1096;114770;-69
2021/08/03 12:23:44;;;;;;;2.13;1.50;;;;;;;26.36;41.72;99703.27;253632;1104;114790;-68
2021/08/03 12:28:50;;;;;;;1.65;1.35;;;;;;;26.22;42.04;99696.52;255078;1100;115062;-68
2021/08/03 12:34:10;;;;;;;2.08;1.73;;;;;;;26.44;41.92;99688.70;253578;1103;115226;-67
2021/08/03 12:39:19;;;;;;;2.10;2.00;;;;;;;26.54;41.64;99692.13;253749;1104;116234;-66
2021/08/03 12:44:27;;;;;;;1.08;1.08;;;;;;;26.61;41.33;99686.86;253516;1104;117000;-67
2021/08/03 12:49:33;;;;;;;1.37;1.30;;;;;;;26.22;40.80;99677.39;256110;1096;116504;-66
2021/08/03 12:54:38;;;;;;;1.63;1.53;;;;;;;26.35;40.91;99674.33;257101;1103;114942;-67
2021/08/03 12:59:45;;;;;;;2.63;1.20;;;;;;;26.44;41.08;99655.89;257071;1104;116515;-67
2021/08/03 13:04:48;;;;;;;1.10;1.10;;;;;;;26.43;40.46;99654.30;257328;1103;115729;-67
2021/08/03 13:09:51;;;;;;;1.03;1.03;;;;;;;26.56;40.11;99654.30;257124;1103;115918;-67
2021/08/03 13:14:55;;;;;;;1.60;1.25;;;;;;;26.50;39.76;99651.80;257033;1103;115787;-67
2021/08/03 13:19:58;;;;;;;2.83;1.33;;;;;;;26.54;39.86;99651.91;257242;1104;116248;-67
2021/08/03 13:25:02;;;;;;;1.48;1.30;;;;;;;26.59;39.22;99639.95;257337;1104;115899;-67
2021/08/03 13:30:06;;;;;;;1.13;1.05;;;;;;;26.57;39.10;99632.09;257275;1104;115911;-66
2021/08/03 13:35:10;;;;;;;1.48;1.38;;;;;;;26.39;39.47;99639.72;255287;1099;117232;-66
2021/08/03 13:40:18;;;;;;;1.30;1.30;;;;;;;26.16;39.45;99627.63;253541;1104;115952;-67
2021/08/03 13:45:21;;;;;;;1.65;1.55;;;;;;;26.30;39.63;99622.63;253506;1104;116881;-67
2021/08/03 13:50:24;;;;;;;1.68;1.38;;;;;;;26.40;39.22;99621.39;253757;1104;115704;-66
2021/08/03 13:55:27;;;;;;;2.40;1.20;;;;;;;26.46;39.57;99615.35;253740;1104;116461;-66
2021/08/03 14:00:30;;;;;;;1.60;1.50;;;;;;;26.32;39.02;99619.56;253738;1104;115666;-67
2021/08/03 14:05:34;;;;;;;2.95;1.43;;;;;;;26.13;39.73;99615.45;253525;1096;116526;-67
2021/08/03 14:10:37;;;;;;;0.77;0.77;;;;;;;26.11;39.33;99608.72;254997;1102;115985;-65
2021/08/03 14:15:40;;;;;;;1.38;1.28;;;;;;;26.02;40.06;99608.03;254129;1104;116462;-66
2021/08/03 14:20:44;;;;;;;1.60;1.28;;;;;;;25.65;40.56;99610.73;253466;1104;115662;-66
2021/08/03 14:25:47;;;;;;;1.55;1.45;;;;;;;25.76;41.03;99611.08;256514;1104;115167;-66
2021/08/03 14:30:50;;;;;;;4.50;1.45;;;;;;;25.73;41.67;99601.63;253719;1104;116045;-64
2021/08/03 14:35:54;;;;;;;1.55;1.45;;;;;;;25.50;42.55;99597.69;253734;1102;115003;-65
2021/08/03 14:40:57;;;;;;;1.48;1.38;;;;;;;25.42;42.74;99596.63;253796;1104;116205;-66
2021/08/03 14:46:00;;;;;;;1.80;1.63;;;;;;;25.18;42.47;99593.83;253753;1103;115712;-66
2021/08/03 14:51:08;;;;;;;1.70;1.60;;;;;;;25.17;42.54;99584.84;253505;1103;115861;-66
2021/08/03 14:56:10;;;;;;;5.73;1.80;;;;;;;25.21;41.62;99589.63;253583;1100;116693;-66
2021/08/03 15:01:13;;;;;;;1.90;1.80;;;;;;;25.17;42.54;99573.94;255116;1104;116833;-67
2021/08/03 15:06:17;;;;;;;1.93;1.83;;;;;;;24.95;43.77;99577.03;257329;1104;135304;-65
2021/08/03 15:11:20;;;;;;;1.18;1.18;;;;;;;24.95;44.18;99576.20;255502;1104;115026;-66
2021/08/03 15:16:23;;;;;;;1.77;1.67;;;;;;;25.07;42.63;99560.70;257072;1103;115090;-66
2021/08/03 15:21:26;;;;;;;1.87;1.70;;;;;;;25.20;42.97;99561.55;257036;1103;114870;-66
2021/08/03 15:26:29;;;;;;;1.63;1.53;;;;;;;25.30;42.31;99560.34;257029;1103;115318;-66
2021/08/03 15:31:32;;;;;;;1.50;1.40;;;;;;;25.36;41.88;99564.45;257143;1103;116032;-67
2021/08/03 15:36:36;;;;;;;6.08;3.30;;;;;;;25.41;42.41;99561.49;257064;1103;115474;-66
2021/08/03 15:41:38;;;;;;;4.43;1.40;;;;;;;25.43;42.28;99556.50;257241;1104;115799;-67
2021/08/03 15:46:43;;;;;;;1.58;1.48;;;;;;;25.32;40.93;99553.42;257292;1103;115446;-67
2021/08/03 15:51:50;;;;;;;3.03;1.73;;;;;;;25.21;42.19;99545.98;257178;1103;115359;-67
2021/08/03 15:56:53;;;;;;;2.03;1.93;;;;;;;25.16;41.53;99538.80;257284;1103;114957;-67
2021/08/03 16:01:55;;;;;;;1.70;1.47;;;;;;;24.84;41.27;99549.34;257363;1102;115200;-65
2021/08/03 16:06:58;;;;;;;2.13;2.03;;;;;;;24.44;43.24;99557.20;257031;1103;116723;-65
2021/08/03 16:12:01;;;;;;;2.65;1.90;;;;;;;24.19;44.52;99549.94;257078;1104;115799;-66
2021/08/03 16:17:06;;;;;;;1.83;1.73;;;;;;;24.00;44.96;99558.53;257061;1103;114788;-66
2021/08/03 16:22:14;;;;;;;1.58;1.30;;;;;;;23.78;45.75;99556.08;257130;1103;116624;-66
2021/08/03 16:27:16;;;;;;;1.70;1.60;;;;;;;23.63;47.58;99554.68;256273;1103;115720;-69
2021/08/03 16:32:23;;;;;;;1.93;1.78;;;;;;;23.42;48.77;99548.33;254582;1104;116134;-68
2021/08/03 16:37:27;;;;;;;2.18;1.98;;;;;;;23.18;49.56;99546.95;254430;1104;115081;-68
2021/08/03 16:42:30;;;;;;;1.45;1.45;;;;;;;22.94;50.30;99543.91;254134;1103;115639;-68
2021/08/03 16:47:33;;;;;;;1.70;1.60;;;;;;;22.69;50.65;99539.27;254045;1104;115121;-70
2021/08/03 16:52:37;;;;;;;3.38;2.10;;;;;;;22.47;50.67;99543.73;254067;1099;115259;-68
2021/08/03 16:57:40;;;;;;;3.45;1.70;;;;;;;22.29;52.00;99546.75;254881;1099;116698;-68
2021/08/03 17:03:03;;;;;;;3.15;1.98;;;;;;;22.08;52.49;99546.52;253978;1100;115109;-67
2021/08/03 17:08:18;;;;;;;1.90;1.80;;;;;;;21.84;53.81;99544.98;254312;1104;114903;-67
2021/08/03 17:13:29;;;;;;;2.88;2.33;;;;;;;21.64;54.03;99542.04;255551;1104;116385;-67
2021/08/03 17:18:34;;;;;;;2.70;2.50;;;;;;;21.44;54.73;99546.88;255719;1103;115326;-66
2021/08/03 17:23:43;;;;;;;4.30;2.53;;;;;;;21.29;55.35;99546.48;254758;1100;116819;-65
2021/08/03 17:28:48;;;;;;;3.48;2.18;;;;;;;21.16;56.00;99553.53;253934;1102;115762;-66
2021/08/03 17:33:53;;;;;;;2.68;2.20;;;;;;;21.04;56.34;99559.53;254246;1099;115110;-66
2021/08/03 17:38:59;;;;;;;3.48;2.33;;;;;;;20.93;57.12;99568.20;256031;1104;115381;-68
2021/08/03 17:44:03;;;;;;;2.40;2.30;;;;;;;20.82;57.30;99567.63;257305;1102;115960;-67
2021/08/03 17:49:15;;;;;;;3.05;2.13;;;;;;;20.73;57.55;99574.89;257317;1103;114814;-67
2021/08/03 17:54:21;;;;;;;2.58;2.38;;;;;;;20.59;58.03;99576.83;257127;1103;115098;-67
2021/08/03 17:59:27;;;;;;;2.83;2.63;;;;;;;20.41;58.33;99581.28;257272;1103;116098;-67
2021/08/03 18:04:36;;;;;;;2.43;2.23;;;;;;;20.11;58.69;99586.19;257047;1103;115731;-67
2021/08/03 18:09:41;;;;;;;2.20;2.10;;;;;;;19.86;59.06;99588.59;257013;1103;115152;-67
2021/08/03 18:14:47;;;;;;;3.32;2.38;;;;;;;19.61;58.96;99592.54;255930;1102;115473;-67
2021/08/03 18:19:52;;;;;;;2.95;2.05;;;;;;;19.42;59.52;99584.47;255868;1104;115281;-67
2021/08/03 18:24:57;;;;;;;3.00;2.80;;;;;;;19.34;59.23;99583.23;254212;1102;115278;-67
2021/08/03 18:30:13;;;;;;;3.18;2.88;;;;;;;19.35;59.46;99573.23;254687;1096;115867;-67
2021/08/03 18:35:24;;;;;;;3.05;2.85;;;;;;;19.39;59.20;99572.34;254228;1103;115542;-67
2021/08/03 18:40:29;;;;;;;3.63;3.33;;;;;;;19.36;59.32;99574.84;254233;1103;115693;-66
2021/08/03 18:45:33;;;;;;;3.68;2.95;;;;;;;19.35;59.67;99573.23;254253;1096;116426;-66
2021/08/03 18:50:37;;;;;;;4.03;3.65;;;;;;;19.28;59.97;99583.61;254230;1104;116063;-66
2021/08/03 18:55:42;;;;;;;4.60;3.40;;;;;;;19.15;60.36;99569.78;254156;1104;116342;-65
2021/08/03 19:00:54;;;;;;;3.60;3.30;;;;;;;19.00;60.76;99580.81;254188;1104;116026;-65
2021/08/03 19:06:17;;;;;;;3.68;3.15;;;;;;;18.77;61.01;99585.21;254051;1104;115723;-67
2021/08/03 19:11:22;;;;;;;3.28;3.08;;;;;;;18.54;61.31;99593.35;254235;1096;116718;-67
2021/08/03 19:16:33;;;;;;;4.25;3.33;;;;;;;18.35;61.89;99587.91;254554;1104;116360;-67
2021/08/03 19:21:49;;;;;;;4.70;4.27;;;;;;;18.12;62.24;99597.64;254216;1104;115828;-66
2021/08/03 19:26:53;;;;;;;5.28;4.88;;;;;;;17.96;62.94;99602.41;254316;1104;115726;-66
2021/08/03 19:31:56;;;;;;;9.27;8.47;;;;;;;17.89;63.27;99601.94;255148;1104;115646;-66
2021/08/03 19:37:00;;;;;;;10.83;9.73;;;;;;;17.76;63.31;99614.20;254813;1104;116553;-67
2021/08/03 19:42:05;;;;;;;14.40;12.03;;;;;;;17.59;63.79;99611.11;255610;1102;115452;-66
2021/08/03 19:47:33;;;;;;;5.20;4.78;;;;;;;17.56;64.06;99608.98;254138;1104;115808;-66
2021/08/03 19:52:40;;;;;;;5.58;4.55;;;;;;;17.52;64.48;99618.71;254863;1102;115675;-66
2021/08/03 19:57:46;;;;;;;5.98;4.20;;;;;;;17.42;64.63;99622.32;257225;1104;115846;-67
2021/08/03 20:02:52;;;;;;;4.53;4.13;;;;;;;17.35;64.90;99637.19;257172;1103;118406;-67
2021/08/03 20:07:55;;;;;;;4.48;4.13;;;;;;;17.38;64.87;99644.72;257200;1102;115002;-67
2021/08/03 20:12:59;;;;;;;6.50;4.65;;;;;;;17.40;65.43;99656.02;256069;1104;116854;-66
2021/08/03 20:18:04;;;;;;;5.83;4.40;;;;;;;17.43;65.44;99652.73;257227;1104;115773;-66
2021/08/03 20:23:06;;;;;;;6.13;5.53;;;;;;;17.28;65.37;99655.56;254298;1104;116851;-66
2021/08/03 20:28:09;;;;;;;5.85;5.35;;;;;;;17.29;65.86;99663.36;254519;1103;116074;-67
2021/08/03 20:33:20;;;;;;;6.88;5.20;;;;;;;17.35;66.54;99672.22;254651;1104;116399;-66
2021/08/03 20:38:26;;;;;;;6.88;4.43;;;;;;;17.42;66.34;99670.02;255565;1104;115503;-66
2021/08/03 20:43:31;;;;;;;6.20;5.58;;;;;;;17.35;66.02;99667.63;253959;1102;114674;-67
2021/08/03 20:48:35;;;;;;;5.93;5.43;;;;;;;17.19;65.96;99663.42;254165;1104;115363;-67
2021/08/03 20:53:39;;;;;;;5.55;5.05;;;;;;;17.03;66.01;99662.73;254872;1104;114625;-66
2021/08/03 20:58:44;;;;;;;5.03;4.63;;;;;;;16.98;66.69;99673.53;255226;1104;115495;-66
2021/08/03 21:03:50;;;;;;;6.43;5.83;;;;;;;16.94;66.80;99667.09;254171;1104;115449;-66
2021/08/03 21:09:06;;;;;;;5.73;4.08;;;;;;;16.91;66.77;99666.83;255465;1100;115874;-66
2021/08/03 21:14:08;;;;;;;7.98;5.68;;;;;;;16.85;66.87;99674.13;254395;1104;114726;-67
2021/08/03 21:19:11;;;;;;;5.45;4.95;;;;;;;16.76;67.12;99681.19;254951;1104;116037;-67
2021/08/03 21:24:14;;;;;;;5.50;5.00;;;;;;;16.74;67.63;99688.73;254690;1104;201057;-66
2021/08/03 21:29:20;;;;;;;4.60;4.20;;;;;;;16.75;67.61;99677.70;254970;1103;115496;-66
2021/08/03 21:34:22;;;;;;;6.07;4.70;;;;;;;16.71;67.94;99684.70;254110;1104;115341;-66
2021/08/03 21:39:25;;;;;;;4.33;3.23;;;;;;;16.67;68.07;99736.67;255010;1104;115822;-66
2021/08/03 21:44:28;;;;;;;3.10;2.88;;;;;;;16.70;67.78;99722.66;254377;1104;115672;-68
2021/08/03 21:49:37;;;;;;;3.95;2.95;;;;;;;16.81;67.79;99743.09;253921;1104;114697;-66
2021/08/03 21:54:40;;;;;;;2.15;2.05;;;;;;;16.87;67.91;99736.58;254461;1103;115769;-66
2021/08/03 21:59:43;;;;;;;2.18;1.48;;;;;;;16.80;68.05;99725.33;257155;1104;114529;-68
2021/08/03 22:04:47;;;;;;;2.18;1.98;;;;;;;16.64;68.45;99729.14;257217;1104;115457;-67
2021/08/03 22:09:51;;;;;;;2.48;1.98;;;;;;;16.57;68.54;99705.17;257196;1103;114814;-67
2021/08/03 22:14:56;;;;;;;3.47;2.80;;;;;;;16.55;69.33;99677.73;257163;1103;115223;-67
2021/08/03 22:19:59;;;;;;;6.40;3.23;;;;;;;16.53;69.30;99660.25;256654;1103;114994;-67
2021/08/03 22:25:04;;;;;;;3.08;2.60;;;;;;;16.51;69.60;99665.91;254140;1104;115406;-67
2021/08/03 22:30:08;;;;;;;2.33;2.13;;;;;;;16.46;69.91;99664.06;255782;1102;115548;-66
2021/08/03 22:35:12;;;;;;;2.47;2.23;;;;;;;16.45;69.73;99651.69;255307;1104;115045;-66
2021/08/03 22:40:16;;;;;;;5.75;1.93;;;;;;;16.29;69.94;99665.45;254319;1104;116188;-68
2021/08/03 22:45:19;;;;;;;2.75;2.53;;;;;;;16.04;70.14;99664.45;255968;1096;115637;-67
2021/08/03 22:50:23;;;;;;;2.23;2.03;;;;;;;15.91;70.72;99670.38;255315;1103;115349;-67
2021/08/03 22:55:27;;;;;;;2.73;2.10;;;;;;;16.01;71.25;99669.55;255216;1104;115014;-67
2021/08/03 23:00:31;;;;;;;2.98;2.68;;;;;;;16.10;71.89;99679.50;255113;1099;115112;-67
2021/08/03 23:05:36;;;;;;;2.48;2.25;;;;;;;16.14;71.44;99652.88;254047;1103;115293;-66
2021/08/03 23:10:39;;;;;;;3.67;2.80;;;;;;;16.10;71.93;99652.61;254365;1104;115452;-65
2021/08/03 23:15:43;;;;;;;2.95;2.73;;;;;;;16.01;71.87;99640.79;254918;1104;115871;-66
2021/08/03 23:20:46;;;;;;;3.13;2.80;;;;;;;15.99;72.16;99637.56;254173;1104;114789;-66
2021/08/03 23:25:50;;;;;;;2.60;2.38;;;;;;;16.02;72.02;99633.53;255133;1103;115249;-65